Time;durP1;ratioP1;P1;durP2;ratioP2;P2;SDS_P1;SDS_P2;PMS_P1;PMS_P2;Temp;Humidity;BMP_temperature;BMP_pressure;BME280_temperature;BME280_humidity;BME280_pressure;Samples;Min_cycle;Max_cycle;Signal;HPM_P1;HPM_P2
2021/01/29 00:01:39;;;;;;;;;;;;;;;16.89;43.42;98567.63;4402475;32;19958;-48
2021/01/29 00:04:05;;;;;;;;;;;;;;;16.93;43.50;98571.13;4408322;32;20449;-49
2021/01/29 00:06:31;;;;;;;;;;;;;;;16.88;43.54;98579.03;4417484;32;20046;-50
2021/01/29 00:08:56;;;;;;;;;;;;;;;16.92;43.40;98564.12;4416863;32;19989;-48
2021/01/29 00:11:22;;;;;;;;;;;;;;;16.90;43.49;98552.72;4417235;32;20041;-51
2021/01/29 00:13:48;;;;;;;;;;;;;;;16.88;43.45;98550.09;4416994;32;20366;-54
2021/01/29 00:16:14;;;;;;;;;;;;;;;16.92;43.35;98556.22;4416999;32;19951;-52
2021/01/29 00:18:40;;;;;;;;;;;;;;;16.89;43.43;98551.84;4413970;32;20385;-49
2021/01/29 00:21:06;;;;;;;;;;;;;;;16.88;43.43;98541.34;4401418;32;19962;-52
2021/01/29 00:23:32;;;;;;;;;;;;;;;16.91;43.46;98533.44;4402651;32;19958;-48
2021/01/29 00:25:58;;;;;;;;;;;;;;;16.89;43.35;98529.94;4417623;32;19950;-51
2021/01/29 00:28:24;;;;;;;;;;;;;;;16.89;43.49;98522.06;4416466;32;20350;-50
2021/01/29 00:30:50;;;;;;;;;;;;;;;16.89;43.48;98522.06;4402681;32;19946;-53
2021/01/29 00:33:16;;;;;;;;;;;;;;;16.85;43.52;98514.19;4401079;32;19951;-52
2021/01/29 00:35:42;;;;;;;;;;;;;;;16.89;43.35;98504.53;4415247;32;19980;-50
2021/01/29 00:38:08;;;;;;;;;;;;;;;16.83;43.53;98500.16;4416783;32;20006;-50
2021/01/29 00:40:34;;;;;;;;;;;;;;;16.85;43.56;98487.91;4403775;32;19959;-49
2021/01/29 00:43:00;;;;;;;;;;;;;;;16.84;43.45;98480.88;4414503;32;19973;-48
2021/01/29 00:45:26;;;;;;;;;;;;;;;16.85;43.38;98482.66;4416988;32;19976;-51
2021/01/29 00:47:52;;;;;;;;;;;;;;;16.87;43.48;98474.72;4416942;32;20335;-52
2021/01/29 00:50:17;;;;;;;;;;;;;;;16.87;43.33;98469.47;4406951;32;19954;-50
2021/01/29 00:52:43;;;;;;;;;;;;;;;16.87;43.36;98461.59;4403223;32;19950;-51
2021/01/29 00:55:09;;;;;;;;;;;;;;;16.82;43.62;98460.75;4412518;32;19954;-51
2021/01/29 00:57:35;;;;;;;;;;;;;;;16.82;43.53;98447.59;4420118;32;20011;-49
2021/01/29 01:00:01;;;;;;;;;;;;;;;16.83;43.43;98446.72;4413717;32;20012;-50
2021/01/29 01:02:27;;;;;;;;;;;;;;;16.84;43.43;98448.47;4403229;32;20339;-54
2021/01/29 01:04:54;;;;;;;;;;;;;;;16.86;43.35;98441.44;4409311;32;19989;-53
2021/01/29 01:07:20;;;;;;;;;;;;;;;16.85;43.36;98440.59;4419756;32;20017;-50
2021/01/29 01:09:46;;;;;;;;;;;;;;;16.85;43.25;98435.31;4415590;32;19946;-50
2021/01/29 01:12:11;;;;;;;;;;;;;;;16.84;43.33;98432.69;4411156;32;20318;-50
2021/01/29 01:14:37;;;;;;;;;;;;;;;16.83;43.37;98429.16;4417879;32;19958;-54
2021/01/29 01:17:03;;;;;;;;;;;;;;;16.82;43.47;98430.06;4403788;32;19949;-53
2021/01/29 01:19:29;;;;;;;;;;;;;;;16.85;43.40;98434.44;4404469;32;20013;-48
2021/01/29 01:21:55;;;;;;;;;;;;;;;16.84;43.48;98432.69;4420259;32;19954;-53
2021/01/29 01:24:21;;;;;;;;;;;;;;;16.82;43.41;98423.94;4419170;32;19996;-51
2021/01/29 01:26:47;;;;;;;;;;;;;;;16.84;43.41;98419.53;4405191;32;19977;-51
2021/01/29 01:29:13;;;;;;;;;;;;;;;16.83;43.34;98410.78;4402584;32;19955;-50
2021/01/29 01:31:39;;;;;;;;;;;;;;;16.83;43.26;98416.03;4417511;32;19950;-52
2021/01/29 01:34:04;;;;;;;;;;;;;;;16.82;43.44;98409.03;4419064;32;19955;-49
2021/01/29 01:36:30;;;;;;;;;;;;;;;16.79;43.49;98403.78;4408001;32;19954;-47
2021/01/29 01:38:56;;;;;;;;;;;;;;;16.80;43.50;98395.03;4403873;32;20334;-46
2021/01/29 01:41:22;;;;;;;;;;;;;;;16.80;43.49;98392.37;4414488;32;20052;-47
2021/01/29 01:43:48;;;;;;;;;;;;;;;16.82;43.44;98381.88;4419238;32;19938;-47
2021/01/29 01:46:14;;;;;;;;;;;;;;;16.79;43.38;98376.63;4419156;32;20339;-49
2021/01/29 01:48:40;;;;;;;;;;;;;;;16.81;43.42;98370.47;4418389;32;19970;-48
2021/01/29 01:51:06;;;;;;;;;;;;;;;16.78;43.38;98362.63;4411482;32;19947;-51
2021/01/29 01:53:32;;;;;;;;;;;;;;;16.78;43.51;98359.97;4404234;32;19959;-49
2021/01/29 01:55:57;;;;;;;;;;;;;;;16.77;43.47;98352.09;4411014;32;20383;-48
2021/01/29 01:58:23;;;;;;;;;;;;;;;16.75;43.58;98338.97;4418013;32;19954;-50
2021/01/29 02:00:49;;;;;;;;;;;;;;;16.78;43.39;98332.81;4414000;32;20591;-49
2021/01/29 02:03:15;;;;;;;;;;;;;;;16.78;43.57;98322.28;4402960;32;19950;-47
2021/01/29 02:05:41;;;;;;;;;;;;;;;16.77;43.53;98315.28;4407357;32;19989;-48
2021/01/29 02:08:07;;;;;;;;;;;;;;;16.79;43.49;98313.53;4418362;32;20240;-45
2021/01/29 02:10:33;;;;;;;;;;;;;;;16.76;43.53;98308.28;4416593;32;19950;-46
2021/01/29 02:12:59;;;;;;;;;;;;;;;16.78;43.36;98296.91;4404564;32;19958;-50
2021/01/29 02:15:24;;;;;;;;;;;;;;;16.78;43.49;98286.37;4418669;32;19962;-48
2021/01/29 02:17:50;;;;;;;;;;;;;;;16.74;43.64;98281.16;4419015;32;20373;-48
2021/01/29 02:20:16;;;;;;;;;;;;;;;16.73;43.57;98288.19;4418149;32;19961;-46
2021/01/29 02:22:42;;;;;;;;;;;;;;;16.72;43.50;98271.53;4418882;32;19950;-50
2021/01/29 02:25:08;;;;;;;;;;;;;;;16.76;43.54;98271.50;4418985;32;20290;-46
2021/01/29 02:27:34;;;;;;;;;;;;;;;16.75;43.49;98260.12;4405216;32;19954;-48
2021/01/29 02:30:00;;;;;;;;;;;;;;;16.76;43.46;98260.97;4403396;32;20009;-47
2021/01/29 02:32:25;;;;;;;;;;;;;;;16.74;43.53;98252.25;4415197;32;19954;-48
2021/01/29 02:34:51;;;;;;;;;;;;;;;16.76;43.51;98245.22;4418984;32;19983;-51
2021/01/29 02:37:17;;;;;;;;;;;;;;;16.75;43.56;98233.84;4408000;32;20363;-46
2021/01/29 02:39:43;;;;;;;;;;;;;;;16.75;43.49;98220.69;4402917;32;19955;-47
2021/01/29 02:42:09;;;;;;;;;;;;;;;16.74;43.56;98212.81;4412020;32;19987;-50
2021/01/29 02:44:35;;;;;;;;;;;;;;;16.75;43.51;98206.66;4418479;32;20297;-47
2021/01/29 02:47:01;;;;;;;;;;;;;;;16.73;43.50;98204.06;4418901;32;20001;-50
2021/01/29 02:49:27;;;;;;;;;;;;;;;16.73;43.65;98201.44;4417443;32;19969;-52
2021/01/29 02:51:53;;;;;;;;;;;;;;;16.72;43.61;98202.28;4412867;32;19962;-53
2021/01/29 02:54:19;;;;;;;;;;;;;;;16.72;43.66;98186.53;4402399;32;20018;-50
2021/01/29 02:56:44;;;;;;;;;;;;;;;16.71;43.54;98183.03;4408714;32;20359;-50
2021/01/29 02:59:10;;;;;;;;;;;;;;;16.72;43.69;98178.66;4417440;32;19946;-51
2021/01/29 03:01:36;;;;;;;;;;;;;;;16.70;43.60;98176.03;4414553;32;20320;-49
2021/01/29 03:04:02;;;;;;;;;;;;;;;16.71;43.66;98164.66;4402962;32;19978;-50
2021/01/29 03:06:28;;;;;;;;;;;;;;;16.69;43.73;98157.66;4404897;32;20128;-50
2021/01/29 03:08:54;;;;;;;;;;;;;;;16.71;43.67;98148.00;4417480;32;19954;-46
2021/01/29 03:11:20;;;;;;;;;;;;;;;16.72;43.67;98149.72;4417248;32;19970;-50
2021/01/29 03:13:46;;;;;;;;;;;;;;;16.73;43.54;98133.09;4409201;32;19991;-46
2021/01/29 03:16:11;;;;;;;;;;;;;;;16.70;43.65;98130.47;4417081;32;19962;-47
2021/01/29 03:18:37;;;;;;;;;;;;;;;16.69;43.77;98129.62;4416270;32;19965;-46
2021/01/29 03:21:03;;;;;;;;;;;;;;;16.69;43.64;98112.97;4417570;32;20006;-48
2021/01/29 03:23:29;;;;;;;;;;;;;;;16.72;43.67;98107.69;4416992;32;20675;-51
2021/01/29 03:25:55;;;;;;;;;;;;;;;16.71;43.69;98108.56;4418718;32;20025;-46
2021/01/29 03:28:21;;;;;;;;;;;;;;;16.68;43.78;98096.34;4404965;32;19982;-49
2021/01/29 03:30:47;;;;;;;;;;;;;;;16.69;43.77;98086.69;4402311;32;19943;-47
2021/01/29 03:33:13;;;;;;;;;;;;;;;16.68;43.80;98074.44;4412582;32;19958;-49
2021/01/29 03:35:39;;;;;;;;;;;;;;;16.66;43.83;98077.06;4417854;32;20506;-48
2021/01/29 03:38:04;;;;;;;;;;;;;;;16.66;43.87;98061.31;4408401;32;19984;-50
2021/01/29 03:40:30;;;;;;;;;;;;;;;16.67;43.79;98057.81;4401572;32;19973;-46
2021/01/29 03:42:56;;;;;;;;;;;;;;;16.68;43.87;98058.66;4410593;32;19964;-52
2021/01/29 03:45:22;;;;;;;;;;;;;;;16.66;43.92;98055.19;4416594;32;21934;-45
2021/01/29 03:47:48;;;;;;;;;;;;;;;16.64;44.02;98051.72;4417603;32;20339;-47
2021/01/29 03:50:14;;;;;;;;;;;;;;;16.63;43.95;98045.56;4402120;32;20119;-47
2021/01/29 03:52:40;;;;;;;;;;;;;;;16.63;43.98;98034.22;4417548;32;19958;-48
2021/01/29 03:55:06;;;;;;;;;;;;;;;16.63;44.00;98034.22;4417494;32;19944;-46
2021/01/29 03:57:31;;;;;;;;;;;;;;;16.64;43.97;98025.44;4413098;32;20351;-48
2021/01/29 03:59:57;;;;;;;;;;;;;;;16.65;43.96;98021.91;4402120;32;19991;-54
2021/01/29 04:02:23;;;;;;;;;;;;;;;16.64;44.01;98013.16;4404137;32;20063;-48
2021/01/29 04:04:49;;;;;;;;;;;;;;;16.64;43.96;98009.66;4417496;32;19950;-49
2021/01/29 04:07:15;;;;;;;;;;;;;;;16.64;43.99;98000.00;4416274;32;19973;-46
2021/01/29 04:09:41;;;;;;;;;;;;;;;16.63;43.95;97993.00;4402392;32;19988;-50
2021/01/29 04:12:07;;;;;;;;;;;;;;;16.65;43.97;97987.75;4401529;32;20335;-49
2021/01/29 04:14:33;;;;;;;;;;;;;;;16.64;43.98;97975.50;4416665;32;19977;-48
2021/01/29 04:16:58;;;;;;;;;;;;;;;16.62;44.03;97977.28;4417766;32;19958;-50
2021/01/29 04:19:24;;;;;;;;;;;;;;;16.58;43.97;97964.16;4402343;32;20322;-47
2021/01/29 04:21:50;;;;;;;;;;;;;;;16.61;43.98;97957.16;4402333;32;19992;-51
2021/01/29 04:24:16;;;;;;;;;;;;;;;16.63;43.86;97950.97;4412537;32;19969;-49
2021/01/29 04:26:42;;;;;;;;;;;;;;;16.62;44.02;97948.38;4417271;32;19950;-47
2021/01/29 04:29:08;;;;;;;;;;;;;;;16.63;44.04;97936.97;4405107;32;20323;-49
2021/01/29 04:31:34;;;;;;;;;;;;;;;16.64;43.87;97920.31;4402176;32;19973;-49
2021/01/29 04:33:59;;;;;;;;;;;;;;;16.61;44.03;97925.63;4410922;32;19962;-54
2021/01/29 04:36:25;;;;;;;;;;;;;;;16.61;44.02;97917.75;4416479;32;20306;-50
2021/01/29 04:38:51;;;;;;;;;;;;;;;16.58;44.08;97906.34;4408623;32;19997;-51
2021/01/29 04:41:17;;;;;;;;;;;;;;;16.57;44.16;97901.12;4401707;32;19954;-50
2021/01/29 04:43:43;;;;;;;;;;;;;;;16.63;44.01;97902.81;4408242;32;20286;-52
2021/01/29 04:46:09;;;;;;;;;;;;;;;16.63;44.02;97893.16;4406263;32;19945;-49
2021/01/29 04:48:35;;;;;;;;;;;;;;;16.56;44.09;97891.50;4409369;32;19950;-50
2021/01/29 04:51:01;;;;;;;;;;;;;;;16.53;44.33;97876.66;4410746;32;20074;-53
2021/01/29 04:53:27;;;;;;;;;;;;;;;16.42;44.27;97868.00;4409915;32;19973;-51
2021/01/29 04:55:52;;;;;;;;;;;;;;;16.50;44.19;97862.66;4409672;32;20252;-48
2021/01/29 04:58:18;;;;;;;;;;;;;;;16.51;44.28;97856.53;4408939;32;20363;-50
2021/01/29 05:00:47;;;;;;;;;;;;;;;16.60;44.05;97845.03;4410021;32;19970;-50
2021/01/29 05:03:13;;;;;;;;;;;;;;;16.48;44.32;97840.81;4416036;32;20345;-47
2021/01/29 05:05:39;;;;;;;;;;;;;;;16.46;44.47;97838.19;4409766;32;19958;-50
2021/01/29 05:08:05;;;;;;;;;;;;;;;16.52;44.23;97829.34;4408928;32;19950;-49
2021/01/29 05:10:31;;;;;;;;;;;;;;;16.57;44.02;97825.78;4408496;32;20037;-52
2021/01/29 05:12:57;;;;;;;;;;;;;;;16.52;44.25;97817.09;4410293;32;19965;-51
2021/01/29 05:15:23;;;;;;;;;;;;;;;16.54;44.22;97810.06;4408755;32;20076;-49
2021/01/29 05:17:48;;;;;;;;;;;;;;;16.56;44.17;97808.28;4412664;32;20017;-50
2021/01/29 05:20:14;;;;;;;;;;;;;;;16.35;44.64;97798.03;4408444;32;19958;-52
2021/01/29 05:22:40;;;;;;;;;;;;;;;16.35;44.82;97787.53;4409120;32;19954;-51
2021/01/29 05:25:06;;;;;;;;;;;;;;;16.34;44.90;97783.16;4408051;32;19946;-51
2021/01/29 05:27:32;;;;;;;;;;;;;;;16.49;44.56;97780.38;4410039;32;19958;-48
2021/01/29 05:29:58;;;;;;;;;;;;;;;16.43;44.60;97775.19;4408038;32;19950;-51
2021/01/29 05:32:25;;;;;;;;;;;;;;;16.58;44.31;97763.62;4410195;32;20657;-52
2021/01/29 05:34:51;;;;;;;;;;;;;;;16.64;44.05;97773.16;4405048;32;20027;-47
2021/01/29 05:37:17;;;;;;;;;;;;;;;16.61;44.13;97757.47;4402222;32;19951;-50
2021/01/29 05:39:43;;;;;;;;;;;;;;;16.58;43.92;97743.44;4410476;32;19946;-51
2021/01/29 05:42:09;;;;;;;;;;;;;;;16.68;43.96;97743.31;4420056;32;19942;-51
2021/01/29 05:44:34;;;;;;;;;;;;;;;16.67;43.92;97741.59;4420456;32;19971;-49
2021/01/29 05:47:00;;;;;;;;;;;;;;;16.70;43.98;97736.28;4420756;32;20365;-51
2021/01/29 05:49:26;;;;;;;;;;;;;;;16.68;43.96;97733.69;4415578;32;19942;-50
2021/01/29 05:51:52;;;;;;;;;;;;;;;16.72;43.88;97726.59;4420624;32;20263;-52
2021/01/29 05:54:18;;;;;;;;;;;;;;;16.67;43.96;97715.31;4418968;32;19970;-51
2021/01/29 05:56:44;;;;;;;;;;;;;;;16.64;44.05;97716.22;4418241;32;19998;-50
2021/01/29 05:59:10;;;;;;;;;;;;;;;16.67;44.04;97724.06;4409563;32;19980;-53
2021/01/29 06:01:36;;;;;;;;;;;;;;;16.70;43.95;97707.37;4404493;32;19989;-51
2021/01/29 06:04:02;;;;;;;;;;;;;;;16.66;44.03;97708.31;4404559;32;19989;-49
2021/01/29 06:06:27;;;;;;;;;;;;;;;16.67;43.97;97699.53;4419182;32;20383;-53
2021/01/29 06:08:53;;;;;;;;;;;;;;;16.71;43.95;97709.09;4418781;32;19966;-48
2021/01/29 06:11:19;;;;;;;;;;;;;;;16.69;43.97;97703.00;4405984;32;19966;-49
2021/01/29 06:13:45;;;;;;;;;;;;;;;16.70;43.85;97694.22;4412415;32;19969;-54
2021/01/29 06:16:11;;;;;;;;;;;;;;;16.68;43.90;97698.66;4410021;32;20382;-53
2021/01/29 06:18:37;;;;;;;;;;;;;;;16.69;43.94;97708.25;4409726;32;19968;-50
2021/01/29 06:21:03;;;;;;;;;;;;;;;16.65;44.02;97712.69;4412889;32;19973;-51
2021/01/29 06:23:29;;;;;;;;;;;;;;;16.65;44.13;97722.34;4412184;32;20330;-50
2021/01/29 06:25:55;;;;;;;;;;;;;;;16.66;44.05;97729.34;4412951;32;20356;-49
2021/01/29 06:28:21;;;;;;;;;;;;;;;16.65;44.19;97724.97;4411029;32;20120;-50
2021/01/29 06:30:46;;;;;;;;;;;;;;;16.58;44.35;97732.94;4411054;32;19954;-54
2021/01/29 06:33:12;;;;;;;;;;;;;;;16.67;44.15;97725.81;4409076;32;20256;-50
2021/01/29 06:35:38;;;;;;;;;;;;;;;16.62;44.32;97730.28;4411297;32;19955;-51
2021/01/29 06:38:04;;;;;;;;;;;;;;;16.68;44.09;97719.66;4410086;32;19950;-50
2021/01/29 06:40:30;;;;;;;;;;;;;;;16.65;44.15;97736.34;4411191;32;19962;-52
2021/01/29 06:42:56;;;;;;;;;;;;;;;16.66;44.23;97755.63;4411996;32;20573;-47
2021/01/29 06:45:22;;;;;;;;;;;;;;;16.55;44.39;97758.41;4409092;32;19987;-48
2021/01/29 06:47:48;;;;;;;;;;;;;;;16.63;44.30;97763.56;4415951;32;20378;-52
2021/01/29 06:50:13;;;;;;;;;;;;;;;16.64;44.27;97770.53;4412912;32;20006;-53
2021/01/29 06:52:40;;;;;;;;;;;;;;;16.61;44.33;97778.47;4414821;32;19964;-57
2021/01/29 06:55:05;;;;;;;;;;;;;;;16.60;44.26;97787.22;4414457;32;19962;-52
2021/01/29 06:57:32;;;;;;;;;;;;;;;16.67;44.13;97783.63;4411745;32;19958;-53
2021/01/29 06:59:58;;;;;;;;;;;;;;;16.66;44.22;97789.78;4415466;32;19950;-47
2021/01/29 07:02:24;;;;;;;;;;;;;;;16.64;44.22;97791.56;4415985;32;19961;-51
2021/01/29 07:04:49;;;;;;;;;;;;;;;16.65;44.20;97816.94;4413698;32;19951;-50
2021/01/29 07:07:15;;;;;;;;;;;;;;;16.65;44.20;97806.44;4402507;32;19983;-48
2021/01/29 07:09:42;;;;;;;;;;;;;;;16.67;44.12;97804.66;4401014;32;20050;-52
2021/01/29 07:12:08;;;;;;;;;;;;;;;16.69;44.14;97809.00;4411550;32;19959;-53
2021/01/29 07:14:34;;;;;;;;;;;;;;;16.68;44.11;97816.91;4415126;32;19969;-50
2021/01/29 07:16:59;;;;;;;;;;;;;;;16.68;44.21;97816.91;4404443;32;20010;-48
2021/01/29 07:19:25;;;;;;;;;;;;;;;16.68;44.22;97824.78;4398362;32;19959;-49
2021/01/29 07:21:51;;;;;;;;;;;;;;;16.64;44.36;97815.22;4413636;32;19985;-50
2021/01/29 07:24:17;;;;;;;;;;;;;;;16.58;44.45;97819.63;4413738;32;19984;-50
2021/01/29 07:26:43;;;;;;;;;;;;;;;16.68;44.20;97822.16;4411394;32;19954;-46
2021/01/29 07:29:09;;;;;;;;;;;;;;;16.68;44.29;97825.66;4415112;32;19964;-49
2021/01/29 07:31:35;;;;;;;;;;;;;;;16.63;44.22;97832.72;4416729;32;19950;-48
2021/01/29 07:34:01;;;;;;;;;;;;;;;16.69;44.26;97834.41;4414708;32;19966;-47
2021/01/29 07:36:27;;;;;;;;;;;;;;;16.66;44.30;97842.34;4409639;32;19958;-48
2021/01/29 07:38:53;;;;;;;;;;;;;;;16.68;44.21;97845.81;4401033;32;19955;-46
2021/01/29 07:41:19;;;;;;;;;;;;;;;16.62;44.40;97866.91;4404825;32;19951;-52
2021/01/29 07:43:44;;;;;;;;;;;;;;;16.61;44.53;97852.03;4415816;32;19988;-52
2021/01/29 07:46:10;;;;;;;;;;;;;;;16.62;44.44;97869.56;4414169;32;19965;-52
2021/01/29 07:48:36;;;;;;;;;;;;;;;16.63;44.51;97866.03;4413997;32;19961;-46
2021/01/29 07:51:02;;;;;;;;;;;;;;;16.46;44.78;97864.44;4414516;32;19954;-47
2021/01/29 07:53:28;;;;;;;;;;;;;;;16.47;44.80;97876.69;4414588;32;19959;-48
2021/01/29 07:55:54;;;;;;;;;;;;;;;16.49;44.60;97879.31;4415081;32;19960;-50
2021/01/29 07:58:20;;;;;;;;;;;;;;;16.57;44.49;97883.59;4401010;32;19959;-51
2021/01/29 08:00:46;;;;;;;;;;;;;;;16.69;44.18;97886.97;4398383;32;20332;-47
2021/01/29 08:03:12;;;;;;;;;;;;;;;16.70;44.06;97886.06;4413665;32;19962;-47
2021/01/29 08:05:38;;;;;;;;;;;;;;;16.76;44.27;97893.00;4416393;32;19964;-46
2021/01/29 08:08:05;;;;;;;;;;;;;;;16.62;44.56;97907.19;4414651;32;19962;-49
2021/01/29 08:10:31;;;;;;;;;;;;;;;16.65;44.72;97906.28;4414580;32;20357;-48
2021/01/29 08:12:57;;;;;;;;;;;;;;;16.74;44.30;97903.56;4408078;32;19954;-47
2021/01/29 08:15:23;;;;;;;;;;;;;;;16.75;44.75;97912.31;4406382;32;20388;-49
2021/01/29 08:17:48;;;;;;;;;;;;;;;16.63;45.12;97913.34;4402662;32;19958;-49
2021/01/29 08:20:14;;;;;;;;;;;;;;;16.70;44.92;97915.88;4406747;32;19961;-50
2021/01/29 08:22:40;;;;;;;;;;;;;;;16.71;45.16;97916.72;4409604;32;19957;-49
2021/01/29 08:25:06;;;;;;;;;;;;;;;16.70;45.32;97920.25;4414320;32;20330;-48
2021/01/29 08:27:32;;;;;;;;;;;;;;;16.74;45.14;97910.56;4408505;32;19954;-47
2021/01/29 08:29:58;;;;;;;;;;;;;;;16.87;44.67;97917.41;4407737;32;19958;-49
2021/01/29 08:32:24;;;;;;;;;;;;;;;16.88;44.93;97926.19;4413381;32;20718;-53
2021/01/29 08:34:49;;;;;;;;;;;;;;;16.59;45.89;97928.25;4415262;32;19995;-51
2021/01/29 08:37:15;;;;;;;;;;;;;;;15.70;47.96;97926.38;4416119;32;19950;-48
2021/01/29 08:39:41;;;;;;;;;;;;;;;16.36;45.98;97921.47;4416976;32;19994;-52
2021/01/29 08:42:07;;;;;;;;;;;;;;;16.67;45.19;97934.31;4412374;32;19939;-49
2021/01/29 08:44:33;;;;;;;;;;;;;;;16.64;46.02;97933.47;4401630;32;19954;-51
2021/01/29 08:46:59;;;;;;;;;;;;;;;16.69;45.98;97935.16;4404124;32;19984;-53
2021/01/29 08:49:25;;;;;;;;;;;;;;;16.76;45.78;97933.31;4414557;32;20635;-55
2021/01/29 08:51:51;;;;;;;;;;;;;;;16.69;46.54;97935.16;4416849;32;19954;-52
2021/01/29 08:54:16;;;;;;;;;;;;;;;16.77;46.19;97936.81;4416713;32;19960;-50
2021/01/29 08:56:42;;;;;;;;;;;;;;;16.81;46.44;97938.53;4417107;32;19950;-50
2021/01/29 08:59:08;;;;;;;;;;;;;;;16.80;46.75;97942.91;4399691;32;20272;-49
2021/01/29 09:01:34;;;;;;;;;;;;;;;16.95;46.19;97941.84;4402213;32;19955;-52
2021/01/29 09:04:00;;;;;;;;;;;;;;;16.82;47.06;97943.75;4416998;32;19965;-49
2021/01/29 09:06:26;;;;;;;;;;;;;;;16.76;47.59;97951.72;4416234;32;20317;-53
2021/01/29 09:08:52;;;;;;;;;;;;;;;16.98;46.26;97951.47;4410620;32;20000;-49
2021/01/29 09:11:17;;;;;;;;;;;;;;;17.06;45.83;97954.03;4415548;32;20323;-53
2021/01/29 09:13:43;;;;;;;;;;;;;;;17.18;45.66;97958.25;4417130;32;19939;-48
2021/01/29 09:16:09;;;;;;;;;;;;;;;17.26;45.41;97959.03;4418069;32;20298;-53
2021/01/29 09:18:35;;;;;;;;;;;;;;;17.31;45.31;97959.84;4409875;32;19977;-53
2021/01/29 09:21:01;;;;;;;;;;;;;;;17.29;45.42;97966.87;4415227;32;20023;-52
2021/01/29 09:23:27;;;;;;;;;;;;;;;17.30;45.46;97965.97;4417022;32;19961;-51
2021/01/29 09:25:53;;;;;;;;;;;;;;;17.29;45.57;97974.78;4418672;32;19945;-49
2021/01/29 09:28:19;;;;;;;;;;;;;;;17.29;45.66;97974.78;4412410;32;19965;-54
2021/01/29 09:30:45;;;;;;;;;;;;;;;17.23;45.87;97982.75;4403251;32;20624;-53
2021/01/29 09:33:11;;;;;;;;;;;;;;;17.22;45.95;97997.66;4408065;32;20001;-51
2021/01/29 09:35:37;;;;;;;;;;;;;;;17.24;45.90;97995.00;4419018;32;19958;-49
2021/01/29 09:38:03;;;;;;;;;;;;;;;17.29;45.87;98006.34;4418569;32;19962;-50
2021/01/29 09:40:29;;;;;;;;;;;;;;;17.33;45.77;98002.75;4418026;32;19985;-48
2021/01/29 09:42:55;;;;;;;;;;;;;;;17.38;45.62;97998.34;4418970;32;19950;-53
2021/01/29 09:45:21;;;;;;;;;;;;;;;17.45;45.50;98000.88;4418032;32;19982;-51
2021/01/29 09:47:47;;;;;;;;;;;;;;;17.47;45.42;97993.81;4418699;32;19954;-46
2021/01/29 09:50:13;;;;;;;;;;;;;;;17.50;45.33;98001.69;4408325;32;19949;-48
2021/01/29 09:52:39;;;;;;;;;;;;;;;17.59;45.13;98003.31;4418078;32;20033;-48
2021/01/29 09:55:05;;;;;;;;;;;;;;;17.65;44.95;98001.47;4416948;32;19985;-51
2021/01/29 09:57:31;;;;;;;;;;;;;;;17.68;44.83;98001.41;4416922;32;20283;-52
2021/01/29 09:59:57;;;;;;;;;;;;;;;17.74;44.62;98015.41;4402713;32;19986;-51
2021/01/29 10:02:23;;;;;;;;;;;;;;;17.85;44.43;98034.56;4403025;32;20033;-47
2021/01/29 10:04:49;;;;;;;;;;;;;;;17.89;44.24;98033.59;4414062;32;19982;-51
2021/01/29 10:07:15;;;;;;;;;;;;;;;17.98;44.00;98033.47;4416437;32;20001;-49
2021/01/29 10:09:41;;;;;;;;;;;;;;;18.05;43.79;98030.75;4405160;32;19962;-48
2021/01/29 10:12:07;;;;;;;;;;;;;;;18.02;43.85;98046.59;4402997;32;19947;-49
2021/01/29 10:14:32;;;;;;;;;;;;;;;18.04;43.78;98047.47;4411950;32;19950;-50
2021/01/29 10:16:58;;;;;;;;;;;;;;;18.12;43.57;98054.34;4417168;32;19958;-48
2021/01/29 10:19:24;;;;;;;;;;;;;;;18.15;43.45;98058.72;4409194;32;19958;-45
2021/01/29 10:21:50;;;;;;;;;;;;;;;18.10;43.54;98050.03;4411910;32;19993;-49
2021/01/29 10:24:16;;;;;;;;;;;;;;;18.14;43.40;98056.97;4407476;32;19950;-47
2021/01/29 10:26:42;;;;;;;;;;;;;;;18.17;43.31;98062.19;4411043;32;19977;-45
2021/01/29 10:29:09;;;;;;;;;;;;;;;18.21;43.21;98063.91;4407384;32;19951;-47
2021/01/29 10:31:34;;;;;;;;;;;;;;;18.23;43.16;98072.63;4407884;32;19950;-45
2021/01/29 10:34:00;;;;;;;;;;;;;;;18.25;43.07;98070.84;4408495;32;19975;-45
2021/01/29 10:36:27;;;;;;;;;;;;;;;18.28;43.05;98074.31;4412235;32;19968;-50
2021/01/29 10:38:53;;;;;;;;;;;;;;;18.30;43.01;98068.16;4410460;32;20008;-46
2021/01/29 10:41:19;;;;;;;;;;;;;;;18.29;43.03;98070.78;4411227;32;19943;-48
2021/01/29 10:43:45;;;;;;;;;;;;;;;18.29;43.08;98073.44;4413072;32;19958;-50
2021/01/29 10:46:15;;;;;;;;;;;;;;;18.25;43.07;98070.84;4411030;32;19958;-47
2021/01/29 10:48:41;;;;;;;;;;;;;;;18.25;43.11;98070.84;4411307;32;19947;-49
2021/01/29 10:51:07;;;;;;;;;;;;;;;18.27;42.99;98070.81;4410146;32;19984;-46
2021/01/29 10:53:33;;;;;;;;;;;;;;;18.25;43.04;98070.84;4410208;32;19982;-44
2021/01/29 10:55:59;;;;;;;;;;;;;;;18.23;42.78;98077.91;4412487;32;19938;-46
2021/01/29 10:58:24;;;;;;;;;;;;;;;18.21;42.69;98073.53;4409844;32;19942;-47
2021/01/29 11:00:50;;;;;;;;;;;;;;;18.19;42.47;98080.59;4412057;32;19996;-49
2021/01/29 11:03:17;;;;;;;;;;;;;;;18.20;42.50;98083.19;4412043;32;19987;-46
2021/01/29 11:05:43;;;;;;;;;;;;;;;18.17;42.37;98079.78;4411873;32;19950;-49
2021/01/29 11:08:09;;;;;;;;;;;;;;;18.13;42.49;98086.84;4411847;32;19952;-46
2021/01/29 11:10:35;;;;;;;;;;;;;;;18.11;42.51;98096.53;4410552;32;20325;-48
2021/01/29 11:13:01;;;;;;;;;;;;;;;18.11;42.46;98104.44;4412033;32;20000;-49
2021/01/29 11:15:28;;;;;;;;;;;;;;;18.08;42.58;98107.97;4411100;32;19976;-47
2021/01/29 11:17:54;;;;;;;;;;;;;;;18.06;42.50;98107.12;4412075;32;19965;-46
2021/01/29 11:20:20;;;;;;;;;;;;;;;18.06;42.42;98111.50;4410464;32;19973;-48
2021/01/29 11:22:46;;;;;;;;;;;;;;;18.01;42.46;98114.19;4418274;32;19939;-49
2021/01/29 11:25:12;;;;;;;;;;;;;;;17.99;42.69;98105.44;4416003;32;20332;-49
2021/01/29 11:27:38;;;;;;;;;;;;;;;17.99;42.54;98105.44;4409810;32;20006;-48
2021/01/29 11:30:04;;;;;;;;;;;;;;;18.01;42.55;98113.31;4408101;32;20008;-50
2021/01/29 11:32:32;;;;;;;;;;;;;;;18.04;42.65;98108.03;4409350;32;19965;-49
2021/01/29 11:34:58;;;;;;;;;;;;;;;18.04;42.51;98113.31;4415122;32;19950;-49
2021/01/29 11:37:24;;;;;;;;;;;;;;;18.06;42.50;98112.41;4413254;32;20047;-54
2021/01/29 11:39:50;;;;;;;;;;;;;;;18.10;42.56;98113.22;4403702;32;19968;-53
2021/01/29 11:42:15;;;;;;;;;;;;;;;18.09;42.65;98119.41;4417096;32;20376;-51
2021/01/29 11:44:42;;;;;;;;;;;;;;;18.06;42.78;98122.03;4417497;32;20001;-50
2021/01/29 11:47:09;;;;;;;;;;;;;;;18.17;42.79;98108.75;4417733;32;19946;-50
2021/01/29 11:49:35;;;;;;;;;;;;;;;18.22;42.71;98104.25;4417115;32;19946;-50
2021/01/29 11:52:01;;;;;;;;;;;;;;;18.22;42.83;98097.25;4416971;32;19961;-50
2021/01/29 11:54:27;;;;;;;;;;;;;;;18.31;42.59;98097.97;4416762;32;19973;-50
2021/01/29 11:56:53;;;;;;;;;;;;;;;18.31;42.59;98105.88;4409807;32;20388;-50
2021/01/29 11:59:19;;;;;;;;;;;;;;;18.32;42.65;98107.62;4410618;32;19970;-50
2021/01/29 12:01:45;;;;;;;;;;;;;;;18.34;42.63;98100.59;4414047;32;20065;-51
2021/01/29 12:04:11;;;;;;;;;;;;;;;18.38;42.69;98105.75;4417337;32;19950;-49
2021/01/29 12:06:37;;;;;;;;;;;;;;;18.42;42.84;98109.22;4413919;32;19999;-50
2021/01/29 12:09:03;;;;;;;;;;;;;;;18.47;42.83;98102.13;4416029;32;19966;-50
2021/01/29 12:11:28;;;;;;;;;;;;;;;18.39;43.16;98109.28;4413907;32;20010;-51
2021/01/29 12:13:55;;;;;;;;;;;;;;;18.42;43.05;98098.69;4412497;32;19950;-52
2021/01/29 12:16:20;;;;;;;;;;;;;;;18.44;43.12;98091.62;4416984;32;19961;-53
2021/01/29 12:18:47;;;;;;;;;;;;;;;18.44;43.24;98099.53;4416943;32;19965;-50
2021/01/29 12:21:14;;;;;;;;;;;;;;;18.45;43.36;98088.09;4410751;32;19958;-50
2021/01/29 12:23:39;;;;;;;;;;;;;;;18.39;43.64;98090.84;4406714;32;19955;-50
2021/01/29 12:26:06;;;;;;;;;;;;;;;18.41;43.92;98089.03;4411857;32;19998;-51
2021/01/29 12:28:31;;;;;;;;;;;;;;;18.43;44.12;98094.31;4401774;32;19991;-52
2021/01/29 12:30:57;;;;;;;;;;;;;;;18.46;44.27;98097.75;4408481;32;19954;-51
2021/01/29 12:33:24;;;;;;;;;;;;;;;18.54;44.07;98090.59;4405194;32;20315;-46
2021/01/29 12:35:50;;;;;;;;;;;;;;;18.62;43.96;98100.12;4395027;32;20039;-49
2021/01/29 12:38:16;;;;;;;;;;;;;;;18.63;43.98;98093.97;4411733;32;19954;-47
2021/01/29 12:40:42;;;;;;;;;;;;;;;18.67;43.92;98088.63;4415267;32;20366;-51